sensor_id;sensor_type;location;lat;lon;timestamp;pressure;altitude;pressure_sealevel;temperature;humidity
11085;BME280;5596;46.826;8.650;2022-08-05T00:02:21;96216.00;;;24.09;100.00
11085;BME280;5596;46.826;8.650;2022-08-05T00:04:49;96233.94;;;23.59;100.00
11085;BME280;5596;46.826;8.650;2022-08-05T00:07:16;96262.78;;;23.30;100.00
11085;BME280;5596;46.826;8.650;2022-08-05T00:09:43;96301.56;;;23.20;100.00
11085;BME280;5596;46.826;8.650;2022-08-05T00:12:12;96358.22;;;23.13;100.00
11085;BME280;5596;46.826;8.650;2022-08-05T00:14:39;96392.78;;;23.19;100.00
11085;BME280;5596;46.826;8.650;2022-08-05T00:17:06;96374.56;;;22.54;100.00
11085;BME280;5596;46.826;8.650;2022-08-05T00:19:33;96366.78;;;22.15;100.00
11085;BME280;5596;46.826;8.650;2022-08-05T00:22:00;96380.88;;;21.63;100.00
11085;BME280;5596;46.826;8.650;2022-08-05T00:24:27;96401.19;;;21.48;100.00
11085;BME280;5596;46.826;8.650;2022-08-05T00:26:54;96420.50;;;21.43;100.00
11085;BME280;5596;46.826;8.650;2022-08-05T00:29:23;96428.44;;;21.26;100.00
11085;BME280;5596;46.826;8.650;2022-08-05T00:31:50;96437.34;;;21.12;100.00
11085;BME280;5596;46.826;8.650;2022-08-05T00:34:17;96452.47;;;21.10;100.00
11085;BME280;5596;46.826;8.650;2022-08-05T00:36:44;96466.53;;;21.08;100.00
11085;BME280;5596;46.826;8.650;2022-08-05T00:39:11;96468.78;;;21.01;100.00
11085;BME280;5596;46.826;8.650;2022-08-05T00:41:38;96465.13;;;20.87;100.00
11085;BME280;5596;46.826;8.650;2022-08-05T00:44:05;96463.44;;;20.91;100.00
11085;BME280;5596;46.826;8.650;2022-08-05T00:46:34;96466.66;;;20.98;100.00
11085;BME280;5596;46.826;8.650;2022-08-05T00:49:01;96467.19;;;21.00;100.00
11085;BME280;5596;46.826;8.650;2022-08-05T00:51:28;96472.06;;;21.03;100.00
11085;BME280;5596;46.826;8.650;2022-08-05T00:53:55;96494.81;;;21.09;100.00
11085;BME280;5596;46.826;8.650;2022-08-05T00:56:22;96504.91;;;21.13;100.00
11085;BME280;5596;46.826;8.650;2022-08-05T00:58:50;96520.75;;;20.98;100.00
11085;BME280;5596;46.826;8.650;2022-08-05T01:01:16;96526.16;;;21.03;100.00
11085;BME280;5596;46.826;8.650;2022-08-05T01:03:45;96524.84;;;21.00;100.00
11085;BME280;5596;46.826;8.650;2022-08-05T01:06:12;96524.00;;;21.00;100.00
11085;BME280;5596;46.826;8.650;2022-08-05T01:08:40;96518.00;;;20.98;100.00
11085;BME280;5596;46.826;8.650;2022-08-05T01:11:11;96522.59;;;21.02;100.00
11085;BME280;5596;46.826;8.650;2022-08-05T01:13:46;96507.41;;;21.10;100.00
11085;BME280;5596;46.826;8.650;2022-08-05T01:16:20;96495.66;;;21.04;100.00
11085;BME280;5596;46.826;8.650;2022-08-05T01:18:54;96502.69;;;21.15;100.00
11085;BME280;5596;46.826;8.650;2022-08-05T01:21:57;96513.09;;;21.19;100.00
11085;BME280;5596;46.826;8.650;2022-08-05T01:24:48;96497.75;;;21.12;100.00
11085;BME280;5596;46.826;8.650;2022-08-05T01:27:28;96502.78;;;21.05;100.00
11085;BME280;5596;46.826;8.650;2022-08-05T01:30:02;96478.56;;;20.89;100.00
11085;BME280;5596;46.826;8.650;2022-08-05T01:32:32;96485.97;;;20.88;100.00
11085;BME280;5596;46.826;8.650;2022-08-05T01:35:02;96482.97;;;20.66;100.00
11085;BME280;5596;46.826;8.650;2022-08-05T01:37:38;96469.34;;;20.56;100.00
11085;BME280;5596;46.826;8.650;2022-08-05T01:40:07;96464.38;;;20.58;100.00
11085;BME280;5596;46.826;8.650;2022-08-05T01:42:35;96469.81;;;20.63;100.00
11085;BME280;5596;46.826;8.650;2022-08-05T01:45:06;96457.31;;;20.52;100.00
11085;BME280;5596;46.826;8.650;2022-08-05T01:47:35;96447.22;;;20.47;100.00
11085;BME280;5596;46.826;8.650;2022-08-05T01:50:04;96431.13;;;20.41;100.00
11085;BME280;5596;46.826;8.650;2022-08-05T01:52:35;96435.53;;;20.36;100.00
11085;BME280;5596;46.826;8.650;2022-08-05T01:55:06;96420.50;;;20.29;100.00
11085;BME280;5596;46.826;8.650;2022-08-05T01:57:38;96400.22;;;20.25;100.00
11085;BME280;5596;46.826;8.650;2022-08-05T02:00:08;96400.47;;;20.28;100.00
11085;BME280;5596;46.826;8.650;2022-08-05T02:02:39;96400.41;;;20.33;100.00
11085;BME280;5596;46.826;8.650;2022-08-05T02:05:10;96411.31;;;20.44;100.00
11085;BME280;5596;46.826;8.650;2022-08-05T02:07:38;96404.81;;;20.34;100.00
11085;BME280;5596;46.826;8.650;2022-08-05T02:10:08;96386.84;;;20.23;100.00
11085;BME280;5596;46.826;8.650;2022-08-05T02:12:39;96390.69;;;20.22;100.00
11085;BME280;5596;46.826;8.650;2022-08-05T02:15:13;96378.66;;;20.18;100.00
11085;BME280;5596;46.826;8.650;2022-08-05T02:17:50;96360.69;;;20.07;100.00
11085;BME280;5596;46.826;8.650;2022-08-05T02:20:21;96359.56;;;20.08;100.00
11085;BME280;5596;46.826;8.650;2022-08-05T02:22:54;96347.19;;;20.16;100.00
11085;BME280;5596;46.826;8.650;2022-08-05T02:25:24;96345.41;;;20.25;100.00
11085;BME280;5596;46.826;8.650;2022-08-05T02:27:54;96348.22;;;20.20;100.00
11085;BME280;5596;46.826;8.650;2022-08-05T02:30:29;96328.72;;;20.21;100.00
11085;BME280;5596;46.826;8.650;2022-08-05T02:32:57;96316.81;;;20.31;100.00
11085;BME280;5596;46.826;8.650;2022-08-05T02:35:27;96308.31;;;20.32;100.00
11085;BME280;5596;46.826;8.650;2022-08-05T02:37:55;96299.59;;;20.25;100.00
11085;BME280;5596;46.826;8.650;2022-08-05T02:40:24;96297.75;;;20.21;100.00
11085;BME280;5596;46.826;8.650;2022-08-05T02:42:53;96301.31;;;20.21;100.00
11085;BME280;5596;46.826;8.650;2022-08-05T02:45:23;96294.78;;;20.17;100.00
11085;BME280;5596;46.826;8.650;2022-08-05T02:47:52;96290.72;;;20.15;100.00
11085;BME280;5596;46.826;8.650;2022-08-05T02:50:20;96299.69;;;20.20;100.00
11085;BME280;5596;46.826;8.650;2022-08-05T02:52:49;96281.72;;;20.33;100.00
11085;BME280;5596;46.826;8.650;2022-08-05T02:55:18;96274.28;;;20.33;100.00
11085;BME280;5596;46.826;8.650;2022-08-05T02:57:47;96264.41;;;20.37;100.00
11085;BME280;5596;46.826;8.650;2022-08-05T03:00:15;96254.44;;;20.42;100.00
11085;BME280;5596;46.826;8.650;2022-08-05T03:02:45;96252.75;;;20.46;100.00
11085;BME280;5596;46.826;8.650;2022-08-05T03:05:14;96250.09;;;20.41;100.00
11085;BME280;5596;46.826;8.650;2022-08-05T03:07:42;96245.06;;;20.48;100.00
11085;BME280;5596;46.826;8.650;2022-08-05T03:10:10;96240.91;;;20.50;100.00
11085;BME280;5596;46.826;8.650;2022-08-05T03:12:38;96243.34;;;20.52;100.00
11085;BME280;5596;46.826;8.650;2022-08-05T03:15:08;96243.28;;;20.57;100.00
11085;BME280;5596;46.826;8.650;2022-08-05T03:17:35;96225.19;;;20.56;100.00
11085;BME280;5596;46.826;8.650;2022-08-05T03:20:05;96221.06;;;20.58;100.00
11085;BME280;5596;46.826;8.650;2022-08-05T03:22:32;96215.03;;;20.56;100.00
11085;BME280;5596;46.826;8.650;2022-08-05T03:25:00;96219.31;;;20.44;100.00
11085;BME280;5596;46.826;8.650;2022-08-05T03:27:27;96207.84;;;20.42;100.00
11085;BME280;5596;46.826;8.650;2022-08-05T03:29:54;96204.59;;;20.39;100.00
11085;BME280;5596;46.826;8.650;2022-08-05T03:32:23;96209.47;;;20.43;100.00
11085;BME280;5596;46.826;8.650;2022-08-05T03:34:51;96217.41;;;20.44;100.00
11085;BME280;5596;46.826;8.650;2022-08-05T03:37:19;96208.06;;;20.45;100.00
11085;BME280;5596;46.826;8.650;2022-08-05T03:39:57;96198.50;;;20.43;100.00
11085;BME280;5596;46.826;8.650;2022-08-05T03:42:24;96197.47;;;20.38;100.00
11085;BME280;5596;46.826;8.650;2022-08-05T03:44:51;96191.28;;;20.28;100.00
11085;BME280;5596;46.826;8.650;2022-08-05T03:47:19;96188.25;;;20.29;100.00
11085;BME280;5596;46.826;8.650;2022-08-05T03:49:46;96182.53;;;20.26;100.00
11085;BME280;5596;46.826;8.650;2022-08-05T03:52:21;96174.00;;;20.27;100.00
11085;BME280;5596;46.826;8.650;2022-08-05T03:54:53;96172.66;;;20.25;100.00
11085;BME280;5596;46.826;8.650;2022-08-05T03:57:24;96177.38;;;20.24;100.00
11085;BME280;5596;46.826;8.650;2022-08-05T03:59:57;96179.06;;;20.20;100.00
11085;BME280;5596;46.826;8.650;2022-08-05T04:02:29;96174.69;;;20.19;100.00
11085;BME280;5596;46.826;8.650;2022-08-05T04:04:58;96170.41;;;20.32;100.00
11085;BME280;5596;46.826;8.650;2022-08-05T04:07:27;96177.56;;;20.28;100.00
11085;BME280;5596;46.826;8.650;2022-08-05T04:09:55;96164.97;;;20.27;100.00
11085;BME280;5596;46.826;8.650;2022-08-05T04:12:22;96167.13;;;20.30;100.00
11085;BME280;5596;46.826;8.650;2022-08-05T04:14:49;96169.53;;;20.36;100.00
11085;BME280;5596;46.826;8.650;2022-08-05T04:17:17;96177.50;;;20.52;100.00
11085;BME280;5596;46.826;8.650;2022-08-05T04:19:45;96173.47;;;20.49;100.00
11085;BME280;5596;46.826;8.650;2022-08-05T04:22:13;96178.63;;;20.51;100.00
11085;BME280;5596;46.826;8.650;2022-08-05T04:24:43;96164.41;;;20.49;100.00
11085;BME280;5596;46.826;8.650;2022-08-05T04:27:11;96160.34;;;20.46;100.00
11085;BME280;5596;46.826;8.650;2022-08-05T04:29:39;96166.06;;;20.50;100.00
11085;BME280;5596;46.826;8.650;2022-08-05T04:32:07;96162.63;;;20.39;100.00
11085;BME280;5596;46.826;8.650;2022-08-05T04:34:34;96165.09;;;20.41;100.00
11085;BME280;5596;46.826;8.650;2022-08-05T04:37:02;96163.22;;;20.55;100.00
11085;BME280;5596;46.826;8.650;2022-08-05T04:39:30;96165.66;;;20.56;100.00
11085;BME280;5596;46.826;8.650;2022-08-05T04:41:59;96167.31;;;20.57;100.00
11085;BME280;5596;46.826;8.650;2022-08-05T04:44:26;96168.63;;;20.60;100.00
11085;BME280;5596;46.826;8.650;2022-08-05T04:46:53;96172.56;;;20.54;100.00
11085;BME280;5596;46.826;8.650;2022-08-05T04:49:20;96175.81;;;20.56;100.00
11085;BME280;5596;46.826;8.650;2022-08-05T04:51:47;96167.50;;;20.61;100.00
11085;BME280;5596;46.826;8.650;2022-08-05T04:54:14;96170.41;;;20.51;100.00
11085;BME280;5596;46.826;8.650;2022-08-05T04:56:44;96169.00;;;20.53;100.00
11085;BME280;5596;46.826;8.650;2022-08-05T04:59:14;96176.94;;;20.55;100.00
11085;BME280;5596;46.826;8.650;2022-08-05T05:01:41;96172.56;;;20.54;100.00
11085;BME280;5596;46.826;8.650;2022-08-05T05:04:08;96175.06;;;20.50;100.00
11085;BME280;5596;46.826;8.650;2022-08-05T05:06:35;96169.16;;;20.43;100.00
11085;BME280;5596;46.826;8.650;2022-08-05T05:09:03;96176.69;;;20.51;100.00
11085;BME280;5596;46.826;8.650;2022-08-05T05:11:29;96174.88;;;20.47;100.00
11085;BME280;5596;46.826;8.650;2022-08-05T05:13:57;96176.63;;;20.56;100.00
11085;BME280;5596;46.826;8.650;2022-08-05T05:16:25;96160.91;;;20.62;100.00
11085;BME280;5596;46.826;8.650;2022-08-05T05:18:52;96166.09;;;20.63;100.00
11085;BME280;5596;46.826;8.650;2022-08-05T05:21:19;96166.81;;;20.69;100.00
11085;BME280;5596;46.826;8.650;2022-08-05T05:23:46;96157.41;;;20.75;100.00
11085;BME280;5596;46.826;8.650;2022-08-05T05:26:13;96154.88;;;20.78;100.00
11085;BME280;5596;46.826;8.650;2022-08-05T05:28:40;96142.41;;;20.86;100.00
11085;BME280;5596;46.826;8.650;2022-08-05T05:31:07;96146.47;;;20.89;100.00
11085;BME280;5596;46.826;8.650;2022-08-05T05:33:36;96139.88;;;20.90;100.00
11085;BME280;5596;46.826;8.650;2022-08-05T05:36:03;96137.94;;;20.90;100.00
11085;BME280;5596;46.826;8.650;2022-08-05T05:38:30;96142.22;;;20.96;100.00
11085;BME280;5596;46.826;8.650;2022-08-05T05:40:57;96149.19;;;21.07;100.00
11085;BME280;5596;46.826;8.650;2022-08-05T05:43:24;96145.22;;;21.13;100.00
11085;BME280;5596;46.826;8.650;2022-08-05T05:45:51;96150.03;;;21.22;100.00
11085;BME280;5596;46.826;8.650;2022-08-05T05:48:19;96155.13;;;21.28;100.00
11085;BME280;5596;46.826;8.650;2022-08-05T05:50:47;96157.56;;;21.30;100.00
11085;BME280;5596;46.826;8.650;2022-08-05T05:53:16;96156.13;;;21.19;100.00
11085;BME280;5596;46.826;8.650;2022-08-05T05:55:44;96161.28;;;21.06;100.00
11085;BME280;5596;46.826;8.650;2022-08-05T05:58:11;96148.66;;;21.05;100.00
11085;BME280;5596;46.826;8.650;2022-08-05T06:00:38;96153.09;;;21.01;100.00
11085;BME280;5596;46.826;8.650;2022-08-05T06:03:05;96161.69;;;21.13;100.00
11085;BME280;5596;46.826;8.650;2022-08-05T06:05:34;96154.53;;;21.18;100.00
11085;BME280;5596;46.826;8.650;2022-08-05T06:08:03;96162.97;;;21.02;100.00
11085;BME280;5596;46.826;8.650;2022-08-05T06:10:30;96151.78;;;20.99;100.00
11085;BME280;5596;46.826;8.650;2022-08-05T06:12:58;96144.44;;;20.94;100.00
11085;BME280;5596;46.826;8.650;2022-08-05T06:15:25;96147.94;;;21.00;100.00
11085;BME280;5596;46.826;8.650;2022-08-05T06:17:52;96153.50;;;20.95;100.00
11085;BME280;5596;46.826;8.650;2022-08-05T06:20:20;96143.97;;;20.92;100.00
11085;BME280;5596;46.826;8.650;2022-08-05T06:22:47;96141.69;;;20.94;100.00
11085;BME280;5596;46.826;8.650;2022-08-05T06:25:16;96149.56;;;21.01;100.00
11085;BME280;5596;46.826;8.650;2022-08-05T06:27:43;96144.25;;;20.91;100.00
11085;BME280;5596;46.826;8.650;2022-08-05T06:30:10;96153.03;;;21.06;100.00
11085;BME280;5596;46.826;8.650;2022-08-05T06:32:40;96141.00;;;21.02;100.00
11085;BME280;5596;46.826;8.650;2022-08-05T06:35:08;96153.69;;;21.17;100.00
11085;BME280;5596;46.826;8.650;2022-08-05T06:37:35;96157.69;;;21.25;100.00
11085;BME280;5596;46.826;8.650;2022-08-05T06:40:04;96152.50;;;21.37;100.00
11085;BME280;5596;46.826;8.650;2022-08-05T06:42:32;96155.34;;;21.45;100.00
11085;BME280;5596;46.826;8.650;2022-08-05T06:44:59;96150.66;;;21.46;100.00
11085;BME280;5596;46.826;8.650;2022-08-05T06:47:26;96147.09;;;21.45;100.00
11085;BME280;5596;46.826;8.650;2022-08-05T06:49:53;96154.13;;;21.38;100.00
11085;BME280;5596;46.826;8.650;2022-08-05T06:52:21;96157.06;;;21.28;100.00
11085;BME280;5596;46.826;8.650;2022-08-05T06:54:48;96155.94;;;21.29;100.00
11085;BME280;5596;46.826;8.650;2022-08-05T06:57:15;96162.66;;;21.23;100.00
11085;BME280;5596;46.826;8.650;2022-08-05T06:59:44;96157.69;;;21.25;100.00
11085;BME280;5596;46.826;8.650;2022-08-05T07:02:11;96154.63;;;21.26;100.00
11085;BME280;5596;46.826;8.650;2022-08-05T07:04:39;96164.09;;;21.34;100.00
11085;BME280;5596;46.826;8.650;2022-08-05T07:07:06;96168.38;;;21.40;100.00
11085;BME280;5596;46.826;8.650;2022-08-05T07:09:33;96167.56;;;21.39;100.00
11085;BME280;5596;46.826;8.650;2022-08-05T07:12:01;96155.66;;;21.44;100.00
11085;BME280;5596;46.826;8.650;2022-08-05T07:14:28;96166.44;;;21.54;100.00
11085;BME280;5596;46.826;8.650;2022-08-05T07:17:13;96169.69;;;21.70;100.00
11085;BME280;5596;46.826;8.650;2022-08-05T07:19:40;96177.06;;;21.74;100.00
11085;BME280;5596;46.826;8.650;2022-08-05T07:22:08;96181.63;;;21.65;100.00
11085;BME280;5596;46.826;8.650;2022-08-05T07:24:35;96189.16;;;21.73;100.00
11085;BME280;5596;46.826;8.650;2022-08-05T07:27:02;96191.00;;;21.92;100.00
11085;BME280;5596;46.826;8.650;2022-08-05T07:29:30;96186.31;;;22.06;100.00
11085;BME280;5596;46.826;8.650;2022-08-05T07:31:57;96189.63;;;22.30;100.00
11085;BME280;5596;46.826;8.650;2022-08-05T07:34:25;96199.09;;;22.51;100.00
11085;BME280;5596;46.826;8.650;2022-08-05T07:36:52;96199.34;;;22.63;100.00
11085;BME280;5596;46.826;8.650;2022-08-05T07:39:20;96204.91;;;23.08;100.00
11085;BME280;5596;46.826;8.650;2022-08-05T07:41:47;96206.50;;;23.31;100.00
11085;BME280;5596;46.826;8.650;2022-08-05T07:44:14;96202.84;;;23.36;100.00
11085;BME280;5596;46.826;8.650;2022-08-05T07:46:41;96211.75;;;23.42;100.00
11085;BME280;5596;46.826;8.650;2022-08-05T07:49:08;96201.50;;;23.33;100.00
11085;BME280;5596;46.826;8.650;2022-08-05T07:51:37;96202.38;;;23.43;100.00
11085;BME280;5596;46.826;8.650;2022-08-05T07:54:04;96201.31;;;23.52;100.00
11085;BME280;5596;46.826;8.650;2022-08-05T07:56:31;96205.41;;;23.55;100.00
11085;BME280;5596;46.826;8.650;2022-08-05T07:58:58;96206.63;;;23.71;100.00
11085;BME280;5596;46.826;8.650;2022-08-05T08:01:25;96202.31;;;23.87;100.00
11085;BME280;5596;46.826;8.650;2022-08-05T08:03:52;96203.34;;;24.08;100.00
11085;BME280;5596;46.826;8.650;2022-08-05T08:06:19;96192.81;;;24.19;100.00
11085;BME280;5596;46.826;8.650;2022-08-05T08:08:48;96193.78;;;24.06;100.00
11085;BME280;5596;46.826;8.650;2022-08-05T08:11:15;96205.19;;;23.82;100.00
11085;BME280;5596;46.826;8.650;2022-08-05T08:13:42;96199.38;;;23.53;100.00
11085;BME280;5596;46.826;8.650;2022-08-05T08:16:09;96190.78;;;23.32;100.00
11085;BME280;5596;46.826;8.650;2022-08-05T08:18:36;96201.91;;;23.18;100.00
11085;BME280;5596;46.826;8.650;2022-08-05T08:21:04;96197.78;;;23.07;100.00
11085;BME280;5596;46.826;8.650;2022-08-05T08:23:31;96199.41;;;23.30;100.00
11085;BME280;5596;46.826;8.650;2022-08-05T08:26:00;96201.22;;;23.66;100.00
11085;BME280;5596;46.826;8.650;2022-08-05T08:28:27;96204.16;;;24.09;100.00
11085;BME280;5596;46.826;8.650;2022-08-05T08:30:54;96207.69;;;24.49;100.00
11085;BME280;5596;46.826;8.650;2022-08-05T08:33:22;96203.81;;;24.84;100.00
11085;BME280;5596;46.826;8.650;2022-08-05T08:35:49;96212.47;;;25.09;100.00
11085;BME280;5596;46.826;8.650;2022-08-05T08:38:16;96207.25;;;25.24;100.00
11085;BME280;5596;46.826;8.650;2022-08-05T08:40:43;96206.50;;;25.53;100.00
11085;BME280;5596;46.826;8.650;2022-08-05T08:43:12;96216.59;;;25.67;100.00
11085;BME280;5596;46.826;8.650;2022-08-05T08:45:39;96216.41;;;25.72;100.00
11085;BME280;5596;46.826;8.650;2022-08-05T08:48:07;96214.59;;;25.84;96.17
11085;BME280;5596;46.826;8.650;2022-08-05T08:50:39;96218.47;;;26.21;90.36
11085;BME280;5596;46.826;8.650;2022-08-05T08:53:09;96210.41;;;26.46;82.18
11085;BME280;5596;46.826;8.650;2022-08-05T08:55:38;96211.44;;;26.83;83.41
11085;BME280;5596;46.826;8.650;2022-08-05T08:58:05;96211.19;;;27.17;77.25
11085;BME280;5596;46.826;8.650;2022-08-05T09:00:34;96209.72;;;27.53;78.69
11085;BME280;5596;46.826;8.650;2022-08-05T09:03:04;96221.03;;;27.93;74.39
11085;BME280;5596;46.826;8.650;2022-08-05T09:05:32;96223.13;;;28.08;73.78
11085;BME280;5596;46.826;8.650;2022-08-05T09:07:59;96217.63;;;28.32;75.93
11085;BME280;5596;46.826;8.650;2022-08-05T09:10:26;96223.16;;;28.44;78.00
11085;BME280;5596;46.826;8.650;2022-08-05T09:12:54;96216.22;;;28.63;76.68
11085;BME280;5596;46.826;8.650;2022-08-05T09:15:22;96206.81;;;28.67;77.17
11085;BME280;5596;46.826;8.650;2022-08-05T09:17:51;96212.28;;;28.64;80.39
11085;BME280;5596;46.826;8.650;2022-08-05T09:20:18;96212.41;;;28.43;80.37
11085;BME280;5596;46.826;8.650;2022-08-05T09:23:06;96216.47;;;28.45;81.32
11085;BME280;5596;46.826;8.650;2022-08-05T09:25:36;96211.38;;;28.47;81.00
11085;BME280;5596;46.826;8.650;2022-08-05T09:28:15;96221.88;;;28.42;82.75
11085;BME280;5596;46.826;8.650;2022-08-05T09:30:52;96208.94;;;28.34;78.68
11085;BME280;5596;46.826;8.650;2022-08-05T09:33:22;96213.00;;;28.24;80.49
11085;BME280;5596;46.826;8.650;2022-08-05T09:35:58;96212.50;;;28.10;78.41
11085;BME280;5596;46.826;8.650;2022-08-05T09:38:27;96207.41;;;28.12;74.49
11085;BME280;5596;46.826;8.650;2022-08-05T09:41:01;96203.16;;;28.39;75.54
11085;BME280;5596;46.826;8.650;2022-08-05T09:43:30;96204.63;;;28.60;68.32
11085;BME280;5596;46.826;8.650;2022-08-05T09:45:57;96194.16;;;28.94;66.10
11085;BME280;5596;46.826;8.650;2022-08-05T09:48:27;96201.47;;;29.26;66.66
11085;BME280;5596;46.826;8.650;2022-08-05T09:50:56;96199.28;;;29.60;66.18
11085;BME280;5596;46.826;8.650;2022-08-05T09:53:24;96183.78;;;29.47;66.35
11085;BME280;5596;46.826;8.650;2022-08-05T09:55:54;96190.31;;;29.66;65.29
11085;BME280;5596;46.826;8.650;2022-08-05T09:58:22;96190.47;;;29.58;64.81
11085;BME280;5596;46.826;8.650;2022-08-05T10:00:58;96197.09;;;29.69;64.62
11085;BME280;5596;46.826;8.650;2022-08-05T10:03:28;96190.78;;;29.84;64.10
11085;BME280;5596;46.826;8.650;2022-08-05T10:06:06;96184.84;;;29.86;62.99
11085;BME280;5596;46.826;8.650;2022-08-05T10:08:34;96185.44;;;29.79;63.21
11085;BME280;5596;46.826;8.650;2022-08-05T10:11:03;96185.56;;;29.83;64.07
11085;BME280;5596;46.826;8.650;2022-08-05T10:13:35;96179.84;;;30.07;63.08
11085;BME280;5596;46.826;8.650;2022-08-05T10:16:03;96178.50;;;30.17;60.61
11085;BME280;5596;46.826;8.650;2022-08-05T10:18:33;96185.59;;;29.98;63.30
11085;BME280;5596;46.826;8.650;2022-08-05T10:21:03;96181.63;;;29.99;64.89
11085;BME280;5596;46.826;8.650;2022-08-05T10:23:32;96173.63;;;29.82;63.93
11085;BME280;5596;46.826;8.650;2022-08-05T10:26:02;96185.97;;;29.69;64.73
11085;BME280;5596;46.826;8.650;2022-08-05T10:28:30;96183.00;;;29.62;64.21
11085;BME280;5596;46.826;8.650;2022-08-05T10:30:58;96169.81;;;29.59;64.84
11085;BME280;5596;46.826;8.650;2022-08-05T10:33:28;96172.59;;;29.59;65.29
11085;BME280;5596;46.826;8.650;2022-08-05T10:35:58;96170.19;;;29.73;64.38
11085;BME280;5596;46.826;8.650;2022-08-05T10:38:27;96173.31;;;29.71;64.88
11085;BME280;5596;46.826;8.650;2022-08-05T10:40:59;96166.22;;;29.43;65.97
11085;BME280;5596;46.826;8.650;2022-08-05T10:43:41;96174.09;;;29.41;66.62
11085;BME280;5596;46.826;8.650;2022-08-05T10:46:15;96174.13;;;29.28;64.97
11085;BME280;5596;46.826;8.650;2022-08-05T10:48:43;96167.00;;;29.15;66.68
11085;BME280;5596;46.826;8.650;2022-08-05T10:51:14;96167.75;;;29.00;70.05
11085;BME280;5596;46.826;8.650;2022-08-05T10:53:43;96163.75;;;29.13;72.08
11085;BME280;5596;46.826;8.650;2022-08-05T10:56:13;96154.09;;;29.23;71.56
11085;BME280;5596;46.826;8.650;2022-08-05T10:58:50;96157.69;;;29.23;65.58
11085;BME280;5596;46.826;8.650;2022-08-05T11:01:29;96158.16;;;29.69;65.61
11085;BME280;5596;46.826;8.650;2022-08-05T11:04:06;96155.28;;;29.81;59.58
11085;BME280;5596;46.826;8.650;2022-08-05T11:07:05;96149.28;;;29.95;60.58
11085;BME280;5596;46.826;8.650;2022-08-05T11:09:41;96158.47;;;30.27;57.93
11085;BME280;5596;46.826;8.650;2022-08-05T11:12:43;96152.69;;;30.51;58.91
11085;BME280;5596;46.826;8.650;2022-08-05T11:15:22;96154.63;;;30.86;56.03
11085;BME280;5596;46.826;8.650;2022-08-05T11:17:52;96150.41;;;31.11;55.13
11085;BME280;5596;46.826;8.650;2022-08-05T11:20:38;96156.94;;;31.18;53.12
11085;BME280;5596;46.826;8.650;2022-08-05T11:23:33;96150.78;;;31.29;54.16
11085;BME280;5596;46.826;8.650;2022-08-05T11:26:06;96139.25;;;31.30;55.02
11085;BME280;5596;46.826;8.650;2022-08-05T11:28:45;96139.97;;;31.46;55.79
11085;BME280;5596;46.826;8.650;2022-08-05T11:31:24;96140.22;;;31.61;54.93
11085;BME280;5596;46.826;8.650;2022-08-05T11:34:07;96138.63;;;31.40;52.46
11085;BME280;5596;46.826;8.650;2022-08-05T11:36:50;96131.63;;;31.92;50.80
11085;BME280;5596;46.826;8.650;2022-08-05T11:39:56;96136.75;;;32.36;51.43
11085;BME280;5596;46.826;8.650;2022-08-05T11:42:24;96134.72;;;32.33;51.05
11085;BME280;5596;46.826;8.650;2022-08-05T11:44:59;96134.97;;;32.24;50.77
11085;BME280;5596;46.826;8.650;2022-08-05T11:47:27;96140.16;;;32.25;50.86
11085;BME280;5596;46.826;8.650;2022-08-05T11:49:56;96126.53;;;32.47;50.69
11085;BME280;5596;46.826;8.650;2022-08-05T11:52:23;96121.91;;;32.09;51.41
11085;BME280;5596;46.826;8.650;2022-08-05T11:54:52;96121.72;;;31.72;54.40
11085;BME280;5596;46.826;8.650;2022-08-05T11:57:20;96124.91;;;31.32;56.30
11085;BME280;5596;46.826;8.650;2022-08-05T11:59:47;96132.25;;;31.01;56.82
11085;BME280;5596;46.826;8.650;2022-08-05T12:02:14;96114.72;;;30.81;58.35
11085;BME280;5596;46.826;8.650;2022-08-05T12:04:43;96110.31;;;30.80;58.24
11085;BME280;5596;46.826;8.650;2022-08-05T12:07:12;96114.88;;;30.69;60.00
11085;BME280;5596;46.826;8.650;2022-08-05T12:09:42;96116.69;;;30.46;61.04
11085;BME280;5596;46.826;8.650;2022-08-05T12:12:20;96119.09;;;30.63;60.77
11085;BME280;5596;46.826;8.650;2022-08-05T12:14:47;96117.44;;;30.97;59.43
11085;BME280;5596;46.826;8.650;2022-08-05T12:17:14;96116.38;;;31.21;57.08
11085;BME280;5596;46.826;8.650;2022-08-05T12:19:44;96115.75;;;31.31;57.29
11085;BME280;5596;46.826;8.650;2022-08-05T12:22:11;96108.72;;;31.60;54.29
11085;BME280;5596;46.826;8.650;2022-08-05T12:24:40;96108.56;;;31.72;52.38
11085;BME280;5596;46.826;8.650;2022-08-05T12:27:07;96102.84;;;31.65;52.95
11085;BME280;5596;46.826;8.650;2022-08-05T12:29:36;96083.84;;;31.51;52.71
11085;BME280;5596;46.826;8.650;2022-08-05T12:32:04;96074.91;;;31.42;53.67
11085;BME280;5596;46.826;8.650;2022-08-05T12:34:33;96071.28;;;31.19;54.18
11085;BME280;5596;46.826;8.650;2022-08-05T12:37:05;96062.72;;;31.31;55.65
11085;BME280;5596;46.826;8.650;2022-08-05T12:39:36;96067.56;;;31.57;55.84
11085;BME280;5596;46.826;8.650;2022-08-05T12:42:14;96060.09;;;31.84;55.17
11085;BME280;5596;46.826;8.650;2022-08-05T12:44:44;96061.41;;;31.90;53.68
11085;BME280;5596;46.826;8.650;2022-08-05T12:47:12;96060.31;;;31.72;53.16
11085;BME280;5596;46.826;8.650;2022-08-05T12:49:43;96059.97;;;31.77;53.81
11085;BME280;5596;46.826;8.650;2022-08-05T12:52:12;96064.06;;;31.83;53.56
11085;BME280;5596;46.826;8.650;2022-08-05T12:54:41;96055.63;;;31.79;54.63
11085;BME280;5596;46.826;8.650;2022-08-05T12:57:09;96053.66;;;31.80;56.03
11085;BME280;5596;46.826;8.650;2022-08-05T12:59:46;96053.03;;;31.90;53.53
11085;BME280;5596;46.826;8.650;2022-08-05T13:02:20;96049.16;;;31.98;51.52
11085;BME280;5596;46.826;8.650;2022-08-05T13:04:48;96051.19;;;32.01;52.02
11085;BME280;5596;46.826;8.650;2022-08-05T13:07:17;96044.09;;;32.07;53.37
11085;BME280;5596;46.826;8.650;2022-08-05T13:09:49;96043.56;;;31.98;52.51
11085;BME280;5596;46.826;8.650;2022-08-05T13:12:18;96041.38;;;31.62;52.98
11085;BME280;5596;46.826;8.650;2022-08-05T13:14:48;96041.06;;;31.44;54.72
11085;BME280;5596;46.826;8.650;2022-08-05T13:17:17;96049.53;;;31.28;53.04
11085;BME280;5596;46.826;8.650;2022-08-05T13:20:02;96062.56;;;31.01;54.45